Time;durP1;ratioP1;P1;durP2;ratioP2;P2;SDS_P1;SDS_P2;PMS_P1;PMS_P2;Temp;Humidity;BMP_temperature;BMP_pressure;BME280_temperature;BME280_humidity;BME280_pressure;Samples;Min_cycle;Max_cycle;Signal;HPM_P1;HPM_P2
2021/11/23 00:00:01;;;;;;;;;;;;;;;;;;2072854;28;19926;-43
2021/11/23 00:01:02;;;;;;;;;;;;;;;;;;2072937;28;19933;-42
2021/11/23 00:02:03;;;;;;;;;;;;;;;;;;2072950;28;19975;-42
2021/11/23 00:03:13;;;;;;;;;;;;;;;;;;2071377;28;19937;-42
2021/11/23 00:04:14;;;;;;;;;;;;;;;;;;2081199;28;19947;-42
2021/11/23 00:05:15;;;;;;;;;;;;;;;;;;2081108;28;20006;-42
2021/11/23 00:06:16;;;;;;;;;;;;;;;;;;2074637;28;19929;-43
2021/11/23 00:07:17;;;;;;;;;;;;;;;;;;2081120;28;20334;-43
2021/11/23 00:08:18;;;;;;;;;;;;;;;;;;2080299;28;19979;-43
2021/11/23 00:09:19;;;;;;;;;;;;;;;;;;2074128;28;20048;-43
2021/11/23 00:10:20;;;;;;;;;;;;;;;;;;2073032;28;20485;-43
2021/11/23 00:11:21;;;;;;;;;;;;;;;;;;2072503;28;19933;-42
2021/11/23 00:12:23;;;;;;;;;;;;;;;;;;2074331;28;19977;-42
2021/11/23 00:13:24;;;;;;;;;;;;;;;;;;2072946;28;19929;-42
2021/11/23 00:14:25;;;;;;;;;;;;;;;;;;2071646;28;20048;-43
2021/11/23 00:15:26;;;;;;;;;;;;;;;;;;2075374;28;20406;-42
2021/11/23 00:16:27;;;;;;;;;;;;;;;;;;2072989;28;20115;-42
2021/11/23 00:17:28;;;;;;;;;;;;;;;;;;2071175;28;20028;-42
2021/11/23 00:18:29;;;;;;;;;;;;;;;;;;2078408;28;19925;-42
2021/11/23 00:19:30;;;;;;;;;;;;;;;;;;2081271;28;20011;-42
2021/11/23 00:20:31;;;;;;;;;;;;;;;;;;2075820;28;20367;-43
2021/11/23 00:21:32;;;;;;;;;;;;;;;;;;2078460;28;19935;-42
2021/11/23 00:22:33;;;;;;;;;;;;;;;;;;2081024;28;20015;-43
2021/11/23 00:23:34;;;;;;;;;;;;;;;;;;2076218;28;19929;-42
2021/11/23 00:24:34;;;;;;;;;;;;;;;;;;2079276;28;20032;-42
2021/11/23 00:25:35;;;;;;;;;;;;;;;;;;2081263;28;20333;-43
2021/11/23 00:26:36;;;;;;;;;;;;;;;;;;2075423;28;20017;-42
2021/11/23 00:27:37;;;;;;;;;;;;;;;;;;2079778;28;19925;-42
2021/11/23 00:28:38;;;;;;;;;;;;;;;;;;2081217;28;20004;-42
2021/11/23 00:29:39;;;;;;;;;;;;;;;;;;2076422;28;19937;-43
2021/11/23 00:30:40;;;;;;;;;;;;;;;;;;2073009;28;20028;-42
2021/11/23 00:31:41;;;;;;;;;;;;;;;;;;2072927;28;20016;-42
2021/11/23 00:32:42;;;;;;;;;;;;;;;;;;2071898;28;20000;-42
2021/11/23 00:33:43;;;;;;;;;;;;;;;;;;2081034;28;19996;-42
2021/11/23 00:34:44;;;;;;;;;;;;;;;;;;2081140;28;19929;-42
2021/11/23 00:35:45;;;;;;;;;;;;;;;;;;2074142;28;19929;-41
2021/11/23 00:36:47;;;;;;;;;;;;;;;;;;2081254;28;20461;-45
2021/11/23 00:37:50;;;;;;;;;;;;;;;;;;2081036;28;19932;-45
2021/11/23 00:38:50;;;;;;;;;;;;;;;;;;2073926;28;20343;-44
2021/11/23 00:39:52;;;;;;;;;;;;;;;;;;2081118;28;19975;-45
2021/11/23 00:40:53;;;;;;;;;;;;;;;;;;2080478;28;20012;-45
2021/11/23 00:41:54;;;;;;;;;;;;;;;;;;2074157;28;20023;-45
2021/11/23 00:42:56;;;;;;;;;;;;;;;;;;2072815;28;20386;-45
2021/11/23 00:43:57;;;;;;;;;;;;;;;;;;2072557;28;19999;-45
2021/11/23 00:44:58;;;;;;;;;;;;;;;;;;2075227;28;20321;-45
2021/11/23 00:45:59;;;;;;;;;;;;;;;;;;2080995;28;20509;-46
2021/11/23 00:47:00;;;;;;;;;;;;;;;;;;2078360;28;19925;-45
2021/11/23 00:48:01;;;;;;;;;;;;;;;;;;2074564;28;20027;-45
2021/11/23 00:49:02;;;;;;;;;;;;;;;;;;2073092;28;19932;-44
2021/11/23 00:50:03;;;;;;;;;;;;;;;;;;2071329;28;20028;-44
2021/11/23 00:51:04;;;;;;;;;;;;;;;;;;2077898;28;19925;-45
2021/11/23 00:52:04;;;;;;;;;;;;;;;;;;2082354;28;20005;-46
2021/11/23 00:53:06;;;;;;;;;;;;;;;;;;2078006;28;19925;-45
2021/11/23 00:54:07;;;;;;;;;;;;;;;;;;2079700;28;20017;-45
2021/11/23 00:55:08;;;;;;;;;;;;;;;;;;2082497;28;19947;-45
2021/11/23 00:56:09;;;;;;;;;;;;;;;;;;2077654;28;20392;-45
2021/11/23 00:57:10;;;;;;;;;;;;;;;;;;2076071;28;19929;-45
2021/11/23 00:58:10;;;;;;;;;;;;;;;;;;2074381;28;20040;-45
2021/11/23 00:59:11;;;;;;;;;;;;;;;;;;2073018;28;20400;-44
2021/11/23 01:00:12;;;;;;;;;;;;;;;;;;2080702;28;19926;-45
2021/11/23 01:01:13;;;;;;;;;;;;;;;;;;2082333;28;20306;-44
2021/11/23 01:02:14;;;;;;;;;;;;;;;;;;2076199;28;19997;-46
2021/11/23 01:03:15;;;;;;;;;;;;;;;;;;2072097;28;19933;-45
2021/11/23 01:04:16;;;;;;;;;;;;;;;;;;2066006;28;20012;-45
2021/11/23 01:05:17;;;;;;;;;;;;;;;;;;2070298;28;19975;-45
2021/11/23 01:06:18;;;;;;;;;;;;;;;;;;2081899;28;19925;-45
2021/11/23 01:07:19;;;;;;;;;;;;;;;;;;2082203;28;19925;-45
2021/11/23 01:08:20;;;;;;;;;;;;;;;;;;2074270;28;19976;-46
2021/11/23 01:09:21;;;;;;;;;;;;;;;;;;2082201;28;20350;-46
2021/11/23 01:10:21;;;;;;;;;;;;;;;;;;2082253;28;20011;-45
2021/11/23 01:11:22;;;;;;;;;;;;;;;;;;2075306;28;20294;-45
2021/11/23 01:12:23;;;;;;;;;;;;;;;;;;2065943;28;19932;-45
2021/11/23 01:13:24;;;;;;;;;;;;;;;;;;2066109;28;19937;-45
2021/11/23 01:14:26;;;;;;;;;;;;;;;;;;2074099;28;20019;-45
2021/11/23 01:15:27;;;;;;;;;;;;;;;;;;2074050;28;19929;-45
2021/11/23 01:16:28;;;;;;;;;;;;;;;;;;2074162;28;19961;-45
2021/11/23 01:17:29;;;;;;;;;;;;;;;;;;2075573;28;19975;-45
2021/11/23 01:18:32;;;;;;;;;;;;;;;;;;2082252;28;19925;-45
2021/11/23 01:19:32;;;;;;;;;;;;;;;;;;2081064;28;20466;-45
2021/11/23 01:20:33;;;;;;;;;;;;;;;;;;2075389;28;19932;-45
2021/11/23 01:21:34;;;;;;;;;;;;;;;;;;2082174;28;20453;-46
2021/11/23 01:22:35;;;;;;;;;;;;;;;;;;2079998;28;19925;-45
2021/11/23 01:23:36;;;;;;;;;;;;;;;;;;2076518;28;20051;-45
2021/11/23 01:24:37;;;;;;;;;;;;;;;;;;2082274;28;20070;-47
2021/11/23 01:25:38;;;;;;;;;;;;;;;;;;2078631;28;20012;-47
2021/11/23 01:26:41;;;;;;;;;;;;;;;;;;2078977;28;19939;-46
2021/11/23 01:27:42;;;;;;;;;;;;;;;;;;2082176;28;20041;-45
2021/11/23 01:28:43;;;;;;;;;;;;;;;;;;2077717;28;20387;-45
2021/11/23 01:29:43;;;;;;;;;;;;;;;;;;2079595;28;20011;-45
2021/11/23 01:30:44;;;;;;;;;;;;;;;;;;2082371;28;19933;-45
2021/11/23 01:31:45;;;;;;;;;;;;;;;;;;2077413;28;19965;-45
2021/11/23 01:32:46;;;;;;;;;;;;;;;;;;2079745;28;19935;-45
2021/11/23 01:33:47;;;;;;;;;;;;;;;;;;2082127;28;20300;-48
2021/11/23 01:34:48;;;;;;;;;;;;;;;;;;2076688;28;19926;-45
2021/11/23 01:35:49;;;;;;;;;;;;;;;;;;2080487;28;20364;-47
2021/11/23 01:36:50;;;;;;;;;;;;;;;;;;2081991;28;19925;-46
2021/11/23 01:37:52;;;;;;;;;;;;;;;;;;2074832;28;20434;-45
2021/11/23 01:38:53;;;;;;;;;;;;;;;;;;2081321;28;20019;-45
2021/11/23 01:39:54;;;;;;;;;;;;;;;;;;2082016;28;19925;-45
2021/11/23 01:40:55;;;;;;;;;;;;;;;;;;2074767;28;19925;-46
2021/11/23 01:41:55;;;;;;;;;;;;;;;;;;2081841;28;19935;-45
2021/11/23 01:42:56;;;;;;;;;;;;;;;;;;2082048;28;20292;-45
2021/11/23 01:43:57;;;;;;;;;;;;;;;;;;2074889;28;19983;-46
2021/11/23 01:44:58;;;;;;;;;;;;;;;;;;2081902;28;20032;-45
2021/11/23 01:45:59;;;;;;;;;;;;;;;;;;2082120;28;19955;-45
2021/11/23 01:47:00;;;;;;;;;;;;;;;;;;2073742;28;20016;-45
2021/11/23 01:48:01;;;;;;;;;;;;;;;;;;2081974;28;20027;-45
2021/11/23 01:49:02;;;;;;;;;;;;;;;;;;2082071;28;19925;-46
2021/11/23 01:50:03;;;;;;;;;;;;;;;;;;2074999;28;20461;-45
2021/11/23 01:51:05;;;;;;;;;;;;;;;;;;2073792;28;19933;-46
2021/11/23 01:52:05;;;;;;;;;;;;;;;;;;2073192;28;20024;-46
2021/11/23 01:53:07;;;;;;;;;;;;;;;;;;2075048;28;19990;-45
2021/11/23 01:54:08;;;;;;;;;;;;;;;;;;2074064;28;20020;-46
2021/11/23 01:55:09;;;;;;;;;;;;;;;;;;2073368;28;19926;-46
2021/11/23 01:56:10;;;;;;;;;;;;;;;;;;2075008;28;20458;-45
2021/11/23 01:57:12;;;;;;;;;;;;;;;;;;2073693;28;20450;-46
2021/11/23 01:58:12;;;;;;;;;;;;;;;;;;2073117;28;19933;-46
2021/11/23 01:59:13;;;;;;;;;;;;;;;;;;2075417;28;19948;-45
2021/11/23 02:00:14;;;;;;;;;;;;;;;;;;2073833;28;20462;-46
2021/11/23 02:01:15;;;;;;;;;;;;;;;;;;2072380;28;19925;-45
2021/11/23 02:02:16;;;;;;;;;;;;;;;;;;2075275;28;19925;-45
2021/11/23 02:03:18;;;;;;;;;;;;;;;;;;2072210;28;19972;-46
2021/11/23 02:04:18;;;;;;;;;;;;;;;;;;2072304;28;20017;-46
2021/11/23 02:05:19;;;;;;;;;;;;;;;;;;2079496;28;19932;-46
2021/11/23 02:06:20;;;;;;;;;;;;;;;;;;2081737;28;20024;-46
2021/11/23 02:07:21;;;;;;;;;;;;;;;;;;2077278;28;19929;-47
2021/11/23 02:08:22;;;;;;;;;;;;;;;;;;2079537;28;20451;-47
2021/11/23 02:09:23;;;;;;;;;;;;;;;;;;2081896;28;20020;-45
2021/11/23 02:10:24;;;;;;;;;;;;;;;;;;2076326;28;19937;-45
2021/11/23 02:11:25;;;;;;;;;;;;;;;;;;2080536;28;20026;-46
2021/11/23 02:12:26;;;;;;;;;;;;;;;;;;2081942;28;20060;-45
2021/11/23 02:13:29;;;;;;;;;;;;;;;;;;2075487;28;19937;-46
2021/11/23 02:14:29;;;;;;;;;;;;;;;;;;2073170;28;19925;-46
2021/11/23 02:15:30;;;;;;;;;;;;;;;;;;2073638;28;20342;-46
2021/11/23 02:16:31;;;;;;;;;;;;;;;;;;2074584;28;19968;-46
2021/11/23 02:17:32;;;;;;;;;;;;;;;;;;2073664;28;20040;-45
2021/11/23 02:18:33;;;;;;;;;;;;;;;;;;2073740;28;19926;-46
2021/11/23 02:19:34;;;;;;;;;;;;;;;;;;2073194;28;20383;-45
2021/11/23 02:20:35;;;;;;;;;;;;;;;;;;2081695;28;19925;-45
2021/11/23 02:21:36;;;;;;;;;;;;;;;;;;2081842;28;19987;-45
2021/11/23 02:22:37;;;;;;;;;;;;;;;;;;2074583;28;19952;-45
2021/11/23 02:23:38;;;;;;;;;;;;;;;;;;2081786;28;20397;-45
2021/11/23 02:24:39;;;;;;;;;;;;;;;;;;2081770;28;20016;-45
2021/11/23 02:25:40;;;;;;;;;;;;;;;;;;2073725;28;19975;-46
2021/11/23 02:26:40;;;;;;;;;;;;;;;;;;2073508;28;20504;-46
2021/11/23 02:27:42;;;;;;;;;;;;;;;;;;2073189;28;19929;-46
2021/11/23 02:28:43;;;;;;;;;;;;;;;;;;2074822;28;20040;-46
2021/11/23 02:29:44;;;;;;;;;;;;;;;;;;2073873;28;19933;-46
2021/11/23 02:30:45;;;;;;;;;;;;;;;;;;2073347;28;19931;-45
2021/11/23 02:31:46;;;;;;;;;;;;;;;;;;2074764;28;20508;-45
2021/11/23 02:32:52;;;;;;;;;;;;;;;;;;2073602;28;19925;-45
2021/11/23 02:33:53;;;;;;;;;;;;;;;;;;2072210;28;20008;-45
2021/11/23 02:34:53;;;;;;;;;;;;;;;;;;2078479;28;20016;-46
2021/11/23 02:35:54;;;;;;;;;;;;;;;;;;2081723;28;20386;-45
2021/11/23 02:36:55;;;;;;;;;;;;;;;;;;2076663;28;19934;-46
2021/11/23 02:37:57;;;;;;;;;;;;;;;;;;2073243;28;19980;-46
2021/11/23 02:38:59;;;;;;;;;;;;;;;;;;2073659;28;19957;-46
2021/11/23 02:40:00;;;;;;;;;;;;;;;;;;2072416;28;20329;-45
2021/11/23 02:41:01;;;;;;;;;;;;;;;;;;2081622;28;19925;-45
2021/11/23 02:42:01;;;;;;;;;;;;;;;;;;2081663;28;19925;-46
2021/11/23 02:43:03;;;;;;;;;;;;;;;;;;2074727;28;20005;-48
2021/11/23 02:44:04;;;;;;;;;;;;;;;;;;2081637;28;20020;-45
2021/11/23 02:45:05;;;;;;;;;;;;;;;;;;2081547;28;19925;-47
2021/11/23 02:46:08;;;;;;;;;;;;;;;;;;2074558;28;20455;-45
2021/11/23 02:47:09;;;;;;;;;;;;;;;;;;2081497;28;20015;-46
2021/11/23 02:48:10;;;;;;;;;;;;;;;;;;2081787;28;19932;-46
2021/11/23 02:49:10;;;;;;;;;;;;;;;;;;2074722;28;19937;-46
2021/11/23 02:50:12;;;;;;;;;;;;;;;;;;2081721;28;19932;-45
2021/11/23 02:51:15;;;;;;;;;;;;;;;;;;2080511;28;20402;-46
2021/11/23 02:52:16;;;;;;;;;;;;;;;;;;2076028;28;19964;-46
2021/11/23 02:53:17;;;;;;;;;;;;;;;;;;2081536;28;20326;-45
2021/11/23 02:54:18;;;;;;;;;;;;;;;;;;2079520;28;19932;-45
2021/11/23 02:55:19;;;;;;;;;;;;;;;;;;2074978;28;19925;-45
2021/11/23 02:56:22;;;;;;;;;;;;;;;;;;2073534;28;19947;-46
2021/11/23 02:57:23;;;;;;;;;;;;;;;;;;2071920;28;19932;-42
2021/11/23 02:58:24;;;;;;;;;;;;;;;;;;2074095;28;19971;-42
2021/11/23 02:59:24;;;;;;;;;;;;;;;;;;2073663;28;20487;-42
2021/11/23 03:00:26;;;;;;;;;;;;;;;;;;2071974;28;19940;-42
2021/11/23 03:01:26;;;;;;;;;;;;;;;;;;2073821;28;20040;-46
2021/11/23 03:02:27;;;;;;;;;;;;;;;;;;2073346;28;20303;-46
2021/11/23 03:03:28;;;;;;;;;;;;;;;;;;2070681;28;20361;-47
2021/11/23 03:04:29;;;;;;;;;;;;;;;;;;2073242;28;19929;-46
2021/11/23 03:05:30;;;;;;;;;;;;;;;;;;2073471;28;20011;-46
2021/11/23 03:06:31;;;;;;;;;;;;;;;;;;2074389;28;19933;-46
2021/11/23 03:07:32;;;;;;;;;;;;;;;;;;2073090;28;20463;-45
2021/11/23 03:08:33;;;;;;;;;;;;;;;;;;2073360;28;19933;-46
2021/11/23 03:09:34;;;;;;;;;;;;;;;;;;2073135;28;20022;-46
2021/11/23 03:10:35;;;;;;;;;;;;;;;;;;2073658;28;19925;-47
2021/11/23 03:11:35;;;;;;;;;;;;;;;;;;2073326;28;19925;-46
2021/11/23 03:12:36;;;;;;;;;;;;;;;;;;2074069;28;19929;-46
2021/11/23 03:13:38;;;;;;;;;;;;;;;;;;2081418;28;19968;-45
2021/11/23 03:14:38;;;;;;;;;;;;;;;;;;2080837;28;19975;-46
2021/11/23 03:15:39;;;;;;;;;;;;;;;;;;2074053;28;19937;-46
2021/11/23 03:16:40;;;;;;;;;;;;;;;;;;2081593;28;20011;-46
2021/11/23 03:17:41;;;;;;;;;;;;;;;;;;2080082;28;19932;-45
2021/11/23 03:18:43;;;;;;;;;;;;;;;;;;2074588;28;19930;-45
2021/11/23 03:19:43;;;;;;;;;;;;;;;;;;2073477;28;20084;-46
2021/11/23 03:20:45;;;;;;;;;;;;;;;;;;2072437;28;19925;-45
2021/11/23 03:21:45;;;;;;;;;;;;;;;;;;2076340;28;20007;-42
2021/11/23 03:22:47;;;;;;;;;;;;;;;;;;2081347;28;19925;-42
2021/11/23 03:23:48;;;;;;;;;;;;;;;;;;2077686;28;19996;-42
2021/11/23 03:24:49;;;;;;;;;;;;;;;;;;2076705;28;19968;-45
2021/11/23 03:25:50;;;;;;;;;;;;;;;;;;2081564;28;20000;-42
2021/11/23 03:26:51;;;;;;;;;;;;;;;;;;2076970;28;19925;-42
2021/11/23 03:27:52;;;;;;;;;;;;;;;;;;2078891;28;19931;-43
2021/11/23 03:28:53;;;;;;;;;;;;;;;;;;2081542;28;19925;-42
2021/11/23 03:29:54;;;;;;;;;;;;;;;;;;2075650;28;20295;-42
2021/11/23 03:30:58;;;;;;;;;;;;;;;;;;2079630;28;19932;-43
2021/11/23 03:31:59;;;;;;;;;;;;;;;;;;2081202;28;20362;-42
2021/11/23 03:33:00;;;;;;;;;;;;;;;;;;2074660;28;19930;-43
2021/11/23 03:34:01;;;;;;;;;;;;;;;;;;2080063;28;20012;-43
2021/11/23 03:35:03;;;;;;;;;;;;;;;;;;2081478;28;19925;-42
2021/11/23 03:36:04;;;;;;;;;;;;;;;;;;2074780;28;20008;-43
2021/11/23 03:37:05;;;;;;;;;;;;;;;;;;2079249;28;20192;-42
2021/11/23 03:38:06;;;;;;;;;;;;;;;;;;2081470;28;19964;-42
2021/11/23 03:39:07;;;;;;;;;;;;;;;;;;2073367;28;19992;-42
2021/11/23 03:40:08;;;;;;;;;;;;;;;;;;2081264;28;20266;-43
2021/11/23 03:41:08;;;;;;;;;;;;;;;;;;2081323;28;20012;-42
2021/11/23 03:42:10;;;;;;;;;;;;;;;;;;2073090;28;19936;-42
2021/11/23 03:43:11;;;;;;;;;;;;;;;;;;2081259;28;20454;-42
2021/11/23 03:44:11;;;;;;;;;;;;;;;;;;2081467;28;19933;-42
2021/11/23 03:45:12;;;;;;;;;;;;;;;;;;2074628;28;19934;-42
2021/11/23 03:46:14;;;;;;;;;;;;;;;;;;2073245;28;20016;-43
2021/11/23 03:47:15;;;;;;;;;;;;;;;;;;2073155;28;19926;-43
2021/11/23 03:48:16;;;;;;;;;;;;;;;;;;2073140;28;20030;-42
2021/11/23 03:49:17;;;;;;;;;;;;;;;;;;2073181;28;19930;-42
2021/11/23 03:50:18;;;;;;;;;;;;;;;;;;2072614;28;19925;-42
2021/11/23 03:51:19;;;;;;;;;;;;;;;;;;2075522;28;20496;-43
2021/11/23 03:52:20;;;;;;;;;;;;;;;;;;2081180;28;20003;-42
2021/11/23 03:53:21;;;;;;;;;;;;;;;;;;2079371;28;20020;-42
2021/11/23 03:54:22;;;;;;;;;;;;;;;;;;2076465;28;19968;-42
2021/11/23 03:55:23;;;;;;;;;;;;;;;;;;2081265;28;19925;-43
2021/11/23 03:56:24;;;;;;;;;;;;;;;;;;2077883;28;20015;-41
2021/11/23 03:57:25;;;;;;;;;;;;;;;;;;2075170;28;20357;-42
2021/11/23 03:58:26;;;;;;;;;;;;;;;;;;2073381;28;20219;-48
2021/11/23 03:59:27;;;;;;;;;;;;;;;;;;2071434;28;20037;-45
2021/11/23 04:00:28;;;;;;;;;;;;;;;;;;2078499;28;19925;-44
2021/11/23 04:01:29;;;;;;;;;;;;;;;;;;2081366;28;19933;-47
2021/11/23 04:02:30;;;;;;;;;;;;;;;;;;2077049;28;19926;-46
2021/11/23 04:03:31;;;;;;;;;;;;;;;;;;2076060;28;19968;-48
2021/11/23 04:04:32;;;;;;;;;;;;;;;;;;2081204;28;20004;-47
2021/11/23 04:05:33;;;;;;;;;;;;;;;;;;2076716;28;20042;-48
2021/11/23 04:06:34;;;;;;;;;;;;;;;;;;2074279;28;20012;-47
2021/11/23 04:07:36;;;;;;;;;;;;;;;;;;2073092;28;19926;-47
2021/11/23 04:08:37;;;;;;;;;;;;;;;;;;2072189;28;20016;-48
2021/11/23 04:09:38;;;;;;;;;;;;;;;;;;2073454;28;20012;-47
2021/11/23 04:10:39;;;;;;;;;;;;;;;;;;2073157;28;19941;-47
2021/11/23 04:11:40;;;;;;;;;;;;;;;;;;2071944;28;20005;-45
2021/11/23 04:12:41;;;;;;;;;;;;;;;;;;2080968;28;19968;-43
2021/11/23 04:13:43;;;;;;;;;;;;;;;;;;2081457;28;20072;-43
2021/11/23 04:14:44;;;;;;;;;;;;;;;;;;2073532;28;20012;-43
2021/11/23 04:15:45;;;;;;;;;;;;;;;;;;2081221;28;19925;-41
2021/11/23 04:16:46;;;;;;;;;;;;;;;;;;2081168;28;19976;-44
2021/11/23 04:17:48;;;;;;;;;;;;;;;;;;2074890;28;19932;-41
2021/11/23 04:18:49;;;;;;;;;;;;;;;;;;2073074;28;20064;-42
2021/11/23 04:19:50;;;;;;;;;;;;;;;;;;2073135;28;20071;-41
2021/11/23 04:20:51;;;;;;;;;;;;;;;;;;2073935;28;20320;-44
2021/11/23 04:21:52;;;;;;;;;;;;;;;;;;2072907;28;20020;-41
2021/11/23 04:22:53;;;;;;;;;;;;;;;;;;2072523;28;19925;-42
2021/11/23 04:23:54;;;;;;;;;;;;;;;;;;2073115;28;20012;-42
2021/11/23 04:24:55;;;;;;;;;;;;;;;;;;2081101;28;20340;-41
2021/11/23 04:25:56;;;;;;;;;;;;;;;;;;2080718;28;19925;-41
2021/11/23 04:26:57;;;;;;;;;;;;;;;;;;2075721;28;19929;-42
2021/11/23 04:27:58;;;;;;;;;;;;;;;;;;2082552;28;19925;-42
2021/11/23 04:28:58;;;;;;;;;;;;;;;;;;2080227;28;20095;-41
2021/11/23 04:30:00;;;;;;;;;;;;;;;;;;2078626;28;19929;-44
2021/11/23 04:31:00;;;;;;;;;;;;;;;;;;2082701;28;19962;-41
2021/11/23 04:32:02;;;;;;;;;;;;;;;;;;2078889;28;20325;-41
2021/11/23 04:33:03;;;;;;;;;;;;;;;;;;2074631;28;20008;-43
2021/11/23 04:34:04;;;;;;;;;;;;;;;;;;2074325;28;19972;-43
2021/11/23 04:35:05;;;;;;;;;;;;;;;;;;2073080;28;19925;-41
2021/11/23 04:36:06;;;;;;;;;;;;;;;;;;2079808;28;19925;-41
2021/11/23 04:37:07;;;;;;;;;;;;;;;;;;2082434;28;19932;-42
2021/11/23 04:38:08;;;;;;;;;;;;;;;;;;2077999;28;19948;-42
2021/11/23 04:39:11;;;;;;;;;;;;;;;;;;2075921;28;20028;-42
2021/11/23 04:40:12;;;;;;;;;;;;;;;;;;2074411;28;20012;-42
2021/11/23 04:41:13;;;;;;;;;;;;;;;;;;2073073;28;20012;-42
2021/11/23 04:42:14;;;;;;;;;;;;;;;;;;2080037;28;19932;-42
2021/11/23 04:43:14;;;;;;;;;;;;;;;;;;2082399;28;20143;-42
2021/11/23 04:44:15;;;;;;;;;;;;;;;;;;2076026;28;20047;-42
2021/11/23 04:45:16;;;;;;;;;;;;;;;;;;2081752;28;20024;-42
2021/11/23 04:46:17;;;;;;;;;;;;;;;;;;2082353;28;19929;-42
2021/11/23 04:47:18;;;;;;;;;;;;;;;;;;2074367;28;20008;-42
2021/11/23 04:48:19;;;;;;;;;;;;;;;;;;2082223;28;20049;-42
2021/11/23 04:49:22;;;;;;;;;;;;;;;;;;2082376;28;19932;-42
2021/11/23 04:50:23;;;;;;;;;;;;;;;;;;2074303;28;19929;-42
2021/11/23 04:51:24;;;;;;;;;;;;;;;;;;2082486;28;19925;-43
2021/11/23 04:52:25;;;;;;;;;;;;;;;;;;2082406;28;19929;-42
2021/11/23 04:53:26;;;;;;;;;;;;;;;;;;2074330;28;20394;-41
2021/11/23 04:54:27;;;;;;;;;;;;;;;;;;2082744;28;20024;-45
2021/11/23 04:55:28;;;;;;;;;;;;;;;;;;2082393;28;20279;-45
2021/11/23 04:56:28;;;;;;;;;;;;;;;;;;2075172;28;20127;-45
2021/11/23 04:57:30;;;;;;;;;;;;;;;;;;2074228;28;20782;-46
2021/11/23 04:58:31;;;;;;;;;;;;;;;;;;2073730;28;19931;-46
2021/11/23 04:59:32;;;;;;;;;;;;;;;;;;2076277;28;19929;-46
2021/11/23 05:00:32;;;;;;;;;;;;;;;;;;2082329;28;20225;-45
2021/11/23 05:01:33;;;;;;;;;;;;;;;;;;2080641;28;19932;-46
2021/11/23 05:02:34;;;;;;;;;;;;;;;;;;2077122;28;20011;-46
2021/11/23 05:03:35;;;;;;;;;;;;;;;;;;2067937;28;20315;-47
2021/11/23 05:04:39;;;;;;;;;;;;;;;;;;2066816;28;19937;-45
2021/11/23 05:05:40;;;;;;;;;;;;;;;;;;2078220;28;19925;-45
2021/11/23 05:06:41;;;;;;;;;;;;;;;;;;2082278;28;19936;-47
2021/11/23 05:07:42;;;;;;;;;;;;;;;;;;2077574;28;19933;-45
2021/11/23 05:08:43;;;;;;;;;;;;;;;;;;2080014;28;20004;-45
2021/11/23 05:09:44;;;;;;;;;;;;;;;;;;2082385;28;19932;-47
2021/11/23 05:10:44;;;;;;;;;;;;;;;;;;2077748;28;20047;-48
2021/11/23 05:11:48;;;;;;;;;;;;;;;;;;2078129;28;19925;-47
2021/11/23 05:12:48;;;;;;;;;;;;;;;;;;2082325;28;19964;-44
2021/11/23 05:13:50;;;;;;;;;;;;;;;;;;2075808;28;19929;-44
2021/11/23 05:14:51;;;;;;;;;;;;;;;;;;2080723;28;20434;-44
2021/11/23 05:15:52;;;;;;;;;;;;;;;;;;2082193;28;20422;-44
2021/11/23 05:16:53;;;;;;;;;;;;;;;;;;2076090;28;20403;-47
2021/11/23 05:17:54;;;;;;;;;;;;;;;;;;2081421;28;19932;-48
2021/11/23 05:18:54;;;;;;;;;;;;;;;;;;2082351;28;19965;-47
2021/11/23 05:19:55;;;;;;;;;;;;;;;;;;2075224;28;19925;-46
2021/11/23 05:20:56;;;;;;;;;;;;;;;;;;2080135;28;20289;-46
2021/11/23 05:21:57;;;;;;;;;;;;;;;;;;2082187;28;19929;-49
2021/11/23 05:22:58;;;;;;;;;;;;;;;;;;2075122;28;20012;-47
2021/11/23 05:23:59;;;;;;;;;;;;;;;;;;2081980;28;19972;-50
2021/11/23 05:25:00;;;;;;;;;;;;;;;;;;2082320;28;19925;-47
2021/11/23 05:26:01;;;;;;;;;;;;;;;;;;2074816;28;20005;-48
2021/11/23 05:27:02;;;;;;;;;;;;;;;;;;2081980;28;20015;-47
2021/11/23 05:28:03;;;;;;;;;;;;;;;;;;2082152;28;19955;-47
2021/11/23 05:29:04;;;;;;;;;;;;;;;;;;2075010;28;20393;-47
2021/11/23 05:30:05;;;;;;;;;;;;;;;;;;2082289;28;19925;-48
2021/11/23 05:31:05;;;;;;;;;;;;;;;;;;2081471;28;20036;-47
2021/11/23 05:32:06;;;;;;;;;;;;;;;;;;2074759;28;20414;-46
2021/11/23 05:33:08;;;;;;;;;;;;;;;;;;2082102;28;20294;-45
2021/11/23 05:34:09;;;;;;;;;;;;;;;;;;2081330;28;19925;-45
2021/11/23 05:35:10;;;;;;;;;;;;;;;;;;2076359;28;19932;-47
2021/11/23 05:36:11;;;;;;;;;;;;;;;;;;2082208;28;20437;-47
2021/11/23 05:37:12;;;;;;;;;;;;;;;;;;2078894;28;19971;-47
2021/11/23 05:38:13;;;;;;;;;;;;;;;;;;2077227;28;19925;-46
2021/11/23 05:39:14;;;;;;;;;;;;;;;;;;2082070;28;20358;-47
2021/11/23 05:40:15;;;;;;;;;;;;;;;;;;2078701;28;19925;-47
2021/11/23 05:41:16;;;;;;;;;;;;;;;;;;2078739;28;20027;-47
2021/11/23 05:42:17;;;;;;;;;;;;;;;;;;2081930;28;19925;-48
2021/11/23 05:43:17;;;;;;;;;;;;;;;;;;2077771;28;19940;-47
2021/11/23 05:44:18;;;;;;;;;;;;;;;;;;2079285;28;20421;-46
2021/11/23 05:45:19;;;;;;;;;;;;;;;;;;2082128;28;20019;-47
2021/11/23 05:46:20;;;;;;;;;;;;;;;;;;2077710;28;20371;-46
2021/11/23 05:47:21;;;;;;;;;;;;;;;;;;2075610;28;20019;-46
2021/11/23 05:48:22;;;;;;;;;;;;;;;;;;2073900;28;19968;-46
2021/11/23 05:49:23;;;;;;;;;;;;;;;;;;2072859;28;20012;-47
2021/11/23 05:50:24;;;;;;;;;;;;;;;;;;2080079;28;19925;-46
2021/11/23 05:51:25;;;;;;;;;;;;;;;;;;2081967;28;20381;-46
2021/11/23 05:52:26;;;;;;;;;;;;;;;;;;2076343;28;19925;-46
2021/11/23 05:53:27;;;;;;;;;;;;;;;;;;2080894;28;20025;-47
2021/11/23 05:54:28;;;;;;;;;;;;;;;;;;2082345;28;20007;-44
2021/11/23 05:55:29;;;;;;;;;;;;;;;;;;2074534;28;19929;-41
2021/11/23 05:56:29;;;;;;;;;;;;;;;;;;2081342;28;20354;-44
2021/11/23 05:57:31;;;;;;;;;;;;;;;;;;2081927;28;20003;-42
2021/11/23 05:58:31;;;;;;;;;;;;;;;;;;2075718;28;20013;-43
2021/11/23 05:59:32;;;;;;;;;;;;;;;;;;2073785;28;19955;-44
2021/11/23 06:00:33;;;;;;;;;;;;;;;;;;2074343;28;19957;-45
2021/11/23 06:01:34;;;;;;;;;;;;;;;;;;2072616;28;19930;-45
2021/11/23 06:02:35;;;;;;;;;;;;;;;;;;2081671;28;19925;-46
2021/11/23 06:03:36;;;;;;;;;;;;;;;;;;2067000;28;19930;-46
2021/11/23 06:04:37;;;;;;;;;;;;;;;;;;2071892;28;20019;-47
2021/11/23 06:05:38;;;;;;;;;;;;;;;;;;2074215;28;19952;-43
2021/11/23 06:06:39;;;;;;;;;;;;;;;;;;2072687;28;20067;-44
2021/11/23 06:07:40;;;;;;;;;;;;;;;;;;2076967;28;19933;-41
2021/11/23 06:08:41;;;;;;;;;;;;;;;;;;2081867;28;19995;-42
2021/11/23 06:09:42;;;;;;;;;;;;;;;;;;2077723;28;19925;-45
2021/11/23 06:10:42;;;;;;;;;;;;;;;;;;2074627;28;19932;-48
2021/11/23 06:11:43;;;;;;;;;;;;;;;;;;2073982;28;20318;-44
2021/11/23 06:12:44;;;;;;;;;;;;;;;;;;2072483;28;20350;-42
2021/11/23 06:13:45;;;;;;;;;;;;;;;;;;2079101;28;19933;-41
2021/11/23 06:14:47;;;;;;;;;;;;;;;;;;2082019;28;20027;-44
2021/11/23 06:15:48;;;;;;;;;;;;;;;;;;2077117;28;20001;-42
2021/11/23 06:16:49;;;;;;;;;;;;;;;;;;2079915;28;20012;-42
2021/11/23 06:17:57;;;;;;;;;;;;;;;;;;2081766;28;20400;-42
2021/11/23 06:18:58;;;;;;;;;;;;;;;;;;2075232;28;20007;-42
2021/11/23 06:19:59;;;;;;;;;;;;;;;;;;2081633;28;20358;-42
2021/11/23 06:21:00;;;;;;;;;;;;;;;;;;2081887;28;19977;-42
2021/11/23 06:22:01;;;;;;;;;;;;;;;;;;2075658;28;19925;-42
2021/11/23 06:23:02;;;;;;;;;;;;;;;;;;2073525;28;20287;-42
2021/11/23 06:24:03;;;;;;;;;;;;;;;;;;2073664;28;19925;-43
2021/11/23 06:25:04;;;;;;;;;;;;;;;;;;2073324;28;20358;-42
2021/11/23 06:26:05;;;;;;;;;;;;;;;;;;2081918;28;19925;-43
2021/11/23 06:27:06;;;;;;;;;;;;;;;;;;2081856;28;20008;-42
2021/11/23 06:28:07;;;;;;;;;;;;;;;;;;2073618;28;20060;-42
2021/11/23 06:29:08;;;;;;;;;;;;;;;;;;2081878;28;19957;-43
2021/11/23 06:30:09;;;;;;;;;;;;;;;;;;2081726;28;19925;-43
2021/11/23 06:31:09;;;;;;;;;;;;;;;;;;2072831;28;19932;-43
2021/11/23 06:32:11;;;;;;;;;;;;;;;;;;2082094;28;19937;-47
2021/11/23 06:33:11;;;;;;;;;;;;;;;;;;2080787;28;19931;-46
2021/11/23 06:34:12;;;;;;;;;;;;;;;;;;2075649;28;19925;-46
2021/11/23 06:35:13;;;;;;;;;;;;;;;;;;2081890;28;19933;-46
2021/11/23 06:36:14;;;;;;;;;;;;;;;;;;2079948;28;19932;-46
2021/11/23 06:37:15;;;;;;;;;;;;;;;;;;2076270;28;19925;-45
2021/11/23 06:38:16;;;;;;;;;;;;;;;;;;2081638;28;20066;-48
2021/11/23 06:39:20;;;;;;;;;;;;;;;;;;2078014;28;19925;-46
2021/11/23 06:40:21;;;;;;;;;;;;;;;;;;2076017;28;20462;-45
2021/11/23 06:41:22;;;;;;;;;;;;;;;;;;2073385;28;20059;-47
2021/11/23 06:42:23;;;;;;;;;;;;;;;;;;2071774;28;20019;-46
2021/11/23 06:43:24;;;;;;;;;;;;;;;;;;2079601;28;20363;-43
2021/11/23 06:44:25;;;;;;;;;;;;;;;;;;2081865;28;20475;-43
2021/11/23 06:45:26;;;;;;;;;;;;;;;;;;2076985;28;19929;-43
2021/11/23 06:46:26;;;;;;;;;;;;;;;;;;2078428;28;19925;-43
2021/11/23 06:47:28;;;;;;;;;;;;;;;;;;2081534;28;20464;-42
2021/11/23 06:48:28;;;;;;;;;;;;;;;;;;2076586;28;20020;-42
2021/11/23 06:49:30;;;;;;;;;;;;;;;;;;2074441;28;19929;-43
2021/11/23 06:50:32;;;;;;;;;;;;;;;;;;2073416;28;20012;-43
2021/11/23 06:51:33;;;;;;;;;;;;;;;;;;2074156;28;20008;-43
2021/11/23 06:52:34;;;;;;;;;;;;;;;;;;2073570;28;20377;-46
2021/11/23 06:53:36;;;;;;;;;;;;;;;;;;2073410;28;20013;-46
2021/11/23 06:54:37;;;;;;;;;;;;;;;;;;2073317;28;20441;-45
2021/11/23 06:55:38;;;;;;;;;;;;;;;;;;2081542;28;19935;-45
2021/11/23 06:56:38;;;;;;;;;;;;;;;;;;2081738;28;19941;-46